sensor_id;sensor_type;location;lat;lon;timestamp;pressure;altitude;pressure_sealevel;temperature;humidity
71966;BME280;59836;52.132;5.442;2023-05-02T00:00:48;102050.38;;;11.43;85.27
71966;BME280;59836;52.132;5.442;2023-05-02T00:03:15;102056.59;;;11.43;85.47
71966;BME280;59836;52.132;5.442;2023-05-02T00:05:42;102051.19;;;11.43;85.51
71966;BME280;59836;52.132;5.442;2023-05-02T00:08:10;102048.72;;;11.42;85.46
71966;BME280;59836;52.132;5.442;2023-05-02T00:10:37;102052.81;;;11.44;85.83
71966;BME280;59836;52.132;5.442;2023-05-02T00:13:03;102049.31;;;11.44;85.54
71966;BME280;59836;52.132;5.442;2023-05-02T00:15:30;102054.97;;;11.42;85.10
71966;BME280;59836;52.132;5.442;2023-05-02T00:17:56;102050.84;;;11.40;85.25
71966;BME280;59836;52.132;5.442;2023-05-02T00:20:23;102052.75;;;11.39;85.47
71966;BME280;59836;52.132;5.442;2023-05-02T00:22:49;102051.09;;;11.38;85.41
71966;BME280;59836;52.132;5.442;2023-05-02T00:25:18;102055.44;;;11.39;85.26
71966;BME280;59836;52.132;5.442;2023-05-02T00:27:45;102054.38;;;11.40;85.79
71966;BME280;59836;52.132;5.442;2023-05-02T00:30:12;102053.31;;;11.41;84.98
71966;BME280;59836;52.132;5.442;2023-05-02T00:32:39;102060.41;;;11.42;85.16
71966;BME280;59836;52.132;5.442;2023-05-02T00:35:06;102061.47;;;11.41;85.27
71966;BME280;59836;52.132;5.442;2023-05-02T00:37:33;102055.81;;;11.43;85.39
71966;BME280;59836;52.132;5.442;2023-05-02T00:40:00;102058.25;;;11.44;85.04
71966;BME280;59836;52.132;5.442;2023-05-02T00:42:27;102054.97;;;11.42;84.96
71966;BME280;59836;52.132;5.442;2023-05-02T00:44:56;102055.53;;;11.44;85.14
71966;BME280;59836;52.132;5.442;2023-05-02T00:47:23;102051.19;;;11.43;85.40
71966;BME280;59836;52.132;5.442;2023-05-02T00:49:49;102063.94;;;11.43;85.33
71966;BME280;59836;52.132;5.442;2023-05-02T00:52:16;102070.19;;;11.43;85.72
71966;BME280;59836;52.132;5.442;2023-05-02T00:54:42;102078.13;;;11.45;85.90
71966;BME280;59836;52.132;5.442;2023-05-02T00:57:09;102062.88;;;11.44;85.76
71966;BME280;59836;52.132;5.442;2023-05-02T00:59:36;102071.84;;;11.44;86.12
71966;BME280;59836;52.132;5.442;2023-05-02T01:02:24;102074.81;;;11.43;86.32
71966;BME280;59836;52.132;5.442;2023-05-02T01:05:17;102083.19;;;11.41;85.98
71966;BME280;59836;52.132;5.442;2023-05-02T01:07:59;102094.06;;;11.41;86.51
71966;BME280;59836;52.132;5.442;2023-05-02T01:13:08;102091.34;;;11.41;86.33
71966;BME280;59836;52.132;5.442;2023-05-02T01:15:38;102086.41;;;11.38;86.60
71966;BME280;59836;52.132;5.442;2023-05-02T01:18:08;102093.97;;;11.36;86.65
71966;BME280;59836;52.132;5.442;2023-05-02T01:20:38;102093.88;;;11.31;86.96
71966;BME280;59836;52.132;5.442;2023-05-02T01:26:28;102102.75;;;11.26;86.75
71966;BME280;59836;52.132;5.442;2023-05-02T01:28:59;102106.78;;;11.23;87.02
71966;BME280;59836;52.132;5.442;2023-05-02T01:31:47;102102.91;;;11.19;86.27
71966;BME280;59836;52.132;5.442;2023-05-02T01:34:16;102105.03;;;11.17;85.46
71966;BME280;59836;52.132;5.442;2023-05-02T01:36:46;102117.44;;;11.13;85.49
71966;BME280;59836;52.132;5.442;2023-05-02T01:39:18;102110.94;;;11.14;85.05
71966;BME280;59836;52.132;5.442;2023-05-02T01:41:48;102122.88;;;11.13;85.07
71966;BME280;59836;52.132;5.442;2023-05-02T01:44:15;102126.09;;;11.10;84.50
71966;BME280;59836;52.132;5.442;2023-05-02T01:46:43;102120.09;;;11.08;84.92
71966;BME280;59836;52.132;5.442;2023-05-02T01:49:11;102123.38;;;11.10;84.49
71966;BME280;59836;52.132;5.442;2023-05-02T01:51:48;102130.94;;;11.08;84.73
71966;BME280;59836;52.132;5.442;2023-05-02T01:54:17;102139.56;;;11.05;84.50
71966;BME280;59836;52.132;5.442;2023-05-02T01:56:46;102140.63;;;11.04;84.50
71966;BME280;59836;52.132;5.442;2023-05-02T01:59:17;102152.78;;;11.01;84.46
71966;BME280;59836;52.132;5.442;2023-05-02T02:01:44;102155.16;;;10.98;84.19
71966;BME280;59836;52.132;5.442;2023-05-02T02:04:12;102152.69;;;10.96;84.10
71966;BME280;59836;52.132;5.442;2023-05-02T02:06:45;102151.88;;;10.96;83.90
71966;BME280;59836;52.132;5.442;2023-05-02T02:09:13;102147.50;;;10.95;83.90
71966;BME280;59836;52.132;5.442;2023-05-02T02:11:51;102155.06;;;10.92;83.63
71966;BME280;59836;52.132;5.442;2023-05-02T02:14:24;102153.41;;;10.91;83.11
71966;BME280;59836;52.132;5.442;2023-05-02T02:16:55;102149.63;;;10.92;83.21
71966;BME280;59836;52.132;5.442;2023-05-02T02:19:27;102157.19;;;10.90;83.20
71966;BME280;59836;52.132;5.442;2023-05-02T02:21:57;102160.72;;;10.91;82.98
71966;BME280;59836;52.132;5.442;2023-05-02T02:24:24;102173.22;;;10.92;82.89
71966;BME280;59836;52.132;5.442;2023-05-02T02:26:52;102173.22;;;10.92;83.36
71966;BME280;59836;52.132;5.442;2023-05-02T02:29:18;102181.34;;;10.92;83.44
71966;BME280;59836;52.132;5.442;2023-05-02T02:31:44;102178.31;;;10.88;82.82
71966;BME280;59836;52.132;5.442;2023-05-02T02:34:11;102183.75;;;10.88;82.89
71966;BME280;59836;52.132;5.442;2023-05-02T02:36:53;102185.88;;;10.86;82.96
71966;BME280;59836;52.132;5.442;2023-05-02T02:39:48;102187.41;;;10.82;81.95
71966;BME280;59836;52.132;5.442;2023-05-02T02:42:26;102187.88;;;10.79;81.34
71966;BME280;59836;52.132;5.442;2023-05-02T02:45:26;102197.09;;;10.78;81.41
71966;BME280;59836;52.132;5.442;2023-05-02T02:48:32;102197.09;;;10.78;81.02
71966;BME280;59836;52.132;5.442;2023-05-02T02:51:13;102201.94;;;10.76;80.39
71966;BME280;59836;52.132;5.442;2023-05-02T02:56:38;102202.63;;;10.71;79.76
71966;BME280;59836;52.132;5.442;2023-05-02T02:59:11;102210.16;;;10.69;79.88
71966;BME280;59836;52.132;5.442;2023-05-02T03:01:42;102204.75;;;10.69;80.21
71966;BME280;59836;52.132;5.442;2023-05-02T03:04:12;102206.06;;;10.67;79.63
71966;BME280;59836;52.132;5.442;2023-05-02T03:06:41;102214.66;;;10.63;79.92
71966;BME280;59836;52.132;5.442;2023-05-02T03:09:14;102214.66;;;10.63;80.32
71966;BME280;59836;52.132;5.442;2023-05-02T03:11:43;102221.16;;;10.62;79.81
71966;BME280;59836;52.132;5.442;2023-05-02T03:14:11;102227.41;;;10.63;79.51
71966;BME280;59836;52.132;5.442;2023-05-02T03:16:38;102221.16;;;10.62;79.94
71966;BME280;59836;52.132;5.442;2023-05-02T03:19:06;102226.59;;;10.62;79.41
71966;BME280;59836;52.132;5.442;2023-05-02T03:21:33;102234.47;;;10.64;79.35
71966;BME280;59836;52.132;5.442;2023-05-02T03:24:00;102235.31;;;10.65;79.04
71966;BME280;59836;52.132;5.442;2023-05-02T03:26:27;102226.59;;;10.62;80.18
71966;BME280;59836;52.132;5.442;2023-05-02T03:28:54;102233.06;;;10.61;79.87
71966;BME280;59836;52.132;5.442;2023-05-02T03:31:21;102235.78;;;10.61;79.90
71966;BME280;59836;52.132;5.442;2023-05-02T03:33:51;102243.56;;;10.58;80.16
71966;BME280;59836;52.132;5.442;2023-05-02T03:36:18;102254.19;;;10.59;80.43
71966;BME280;59836;52.132;5.442;2023-05-02T03:38:44;102244.63;;;10.57;80.55
71966;BME280;59836;52.132;5.442;2023-05-02T03:41:11;102245.44;;;10.57;80.70
71966;BME280;59836;52.132;5.442;2023-05-02T03:43:37;102256.78;;;10.54;80.63
71966;BME280;59836;52.132;5.442;2023-05-02T03:46:06;102259.94;;;10.51;80.92
71966;BME280;59836;52.132;5.442;2023-05-02T03:48:37;102254.53;;;10.51;80.65
71966;BME280;59836;52.132;5.442;2023-05-02T03:51:04;102263.50;;;10.52;80.52
71966;BME280;59836;52.132;5.442;2023-05-02T03:53:32;102259.13;;;10.51;80.51
71966;BME280;59836;52.132;5.442;2023-05-02T03:55:59;102268.94;;;10.52;80.59
71966;BME280;59836;52.132;5.442;2023-05-02T03:58:25;102275.41;;;10.51;80.80
71966;BME280;59836;52.132;5.442;2023-05-02T04:00:52;102270.22;;;10.49;80.88
71966;BME280;59836;52.132;5.442;2023-05-02T04:03:19;102277.16;;;10.45;80.35
71966;BME280;59836;52.132;5.442;2023-05-02T04:05:46;102278.69;;;10.41;80.33
71966;BME280;59836;52.132;5.442;2023-05-02T04:08:13;102278.06;;;10.39;79.46
71966;BME280;59836;52.132;5.442;2023-05-02T04:10:39;102274.16;;;10.34;79.58
71966;BME280;59836;52.132;5.442;2023-05-02T04:13:06;102281.22;;;10.36;79.60
71966;BME280;59836;52.132;5.442;2023-05-02T04:15:32;102286.66;;;10.36;79.48
71966;BME280;59836;52.132;5.442;2023-05-02T04:17:59;102284.19;;;10.34;79.62
71966;BME280;59836;52.132;5.442;2023-05-02T04:20:25;102294.19;;;10.33;79.34
71966;BME280;59836;52.132;5.442;2023-05-02T04:22:52;102293.59;;;10.31;79.58
71966;BME280;59836;52.132;5.442;2023-05-02T04:25:18;102295.72;;;10.29;79.87
71966;BME280;59836;52.132;5.442;2023-05-02T04:27:45;102296.78;;;10.28;80.10
71966;BME280;59836;52.132;5.442;2023-05-02T04:30:11;102304.31;;;10.26;79.29
71966;BME280;59836;52.132;5.442;2023-05-02T04:32:38;102309.75;;;10.26;78.96
71966;BME280;59836;52.132;5.442;2023-05-02T04:35:05;102316.09;;;10.20;78.52
71966;BME280;59836;52.132;5.442;2023-05-02T04:37:31;102318.59;;;10.22;78.87
71966;BME280;59836;52.132;5.442;2023-05-02T04:39:58;102328.59;;;10.21;78.76
71966;BME280;59836;52.132;5.442;2023-05-02T04:42:25;102333.28;;;10.14;78.29
71966;BME280;59836;52.132;5.442;2023-05-02T04:44:52;102332.06;;;10.10;78.17
71966;BME280;59836;52.132;5.442;2023-05-02T04:47:19;102342.09;;;10.09;78.01
71966;BME280;59836;52.132;5.442;2023-05-02T04:49:45;102340.69;;;10.07;78.51
71966;BME280;59836;52.132;5.442;2023-05-02T04:52:12;102349.63;;;10.07;77.88
71966;BME280;59836;52.132;5.442;2023-05-02T04:54:38;102355.75;;;10.02;78.04
71966;BME280;59836;52.132;5.442;2023-05-02T04:57:05;102364.34;;;9.99;77.47
71966;BME280;59836;52.132;5.442;2023-05-02T04:59:33;102359.13;;;9.98;77.35
71966;BME280;59836;52.132;5.442;2023-05-02T05:02:00;102364.19;;;9.94;77.24
71966;BME280;59836;52.132;5.442;2023-05-02T05:04:27;102358.78;;;9.94;77.14
71966;BME280;59836;52.132;5.442;2023-05-02T05:06:53;102375.50;;;9.91;76.47
71966;BME280;59836;52.132;5.442;2023-05-02T05:09:20;102370.06;;;9.91;76.24
71966;BME280;59836;52.132;5.442;2023-05-02T05:11:47;102378.66;;;9.88;76.15
71966;BME280;59836;52.132;5.442;2023-05-02T05:14:13;102380.31;;;9.89;76.15
71966;BME280;59836;52.132;5.442;2023-05-02T05:16:40;102392.81;;;9.90;75.96
71966;BME280;59836;52.132;5.442;2023-05-02T05:19:06;102393.25;;;9.87;76.00
71966;BME280;59836;52.132;5.442;2023-05-02T05:21:32;102391.16;;;9.89;76.11
71966;BME280;59836;52.132;5.442;2023-05-02T05:23:59;102393.25;;;9.87;75.53
71966;BME280;59836;52.132;5.442;2023-05-02T05:26:25;102403.03;;;9.88;75.67
71966;BME280;59836;52.132;5.442;2023-05-02T05:28:52;102397.94;;;9.80;75.25
71966;BME280;59836;52.132;5.442;2023-05-02T05:31:18;102403.34;;;9.80;75.26
71966;BME280;59836;52.132;5.442;2023-05-02T05:33:45;102413.13;;;9.81;74.94
71966;BME280;59836;52.132;5.442;2023-05-02T05:36:12;102411.22;;;9.81;75.66
71966;BME280;59836;52.132;5.442;2023-05-02T05:38:42;102415.84;;;9.81;75.59
71966;BME280;59836;52.132;5.442;2023-05-02T05:41:08;102420.66;;;9.79;75.41
71966;BME280;59836;52.132;5.442;2023-05-02T05:43:36;102428.38;;;9.75;75.03
71966;BME280;59836;52.132;5.442;2023-05-02T05:46:03;102425.06;;;9.73;75.60
71966;BME280;59836;52.132;5.442;2023-05-02T05:48:30;102435.47;;;9.76;75.33
71966;BME280;59836;52.132;5.442;2023-05-02T05:50:56;102440.53;;;9.72;75.99
71966;BME280;59836;52.132;5.442;2023-05-02T05:53:23;102447.19;;;9.70;76.13
71966;BME280;59836;52.132;5.442;2023-05-02T05:55:49;102454.72;;;9.68;75.79
71966;BME280;59836;52.132;5.442;2023-05-02T05:58:15;102459.38;;;9.60;75.59
71966;BME280;59836;52.132;5.442;2023-05-02T06:00:42;102466.53;;;9.55;75.85
71966;BME280;59836;52.132;5.442;2023-05-02T06:03:08;102463.81;;;9.55;75.50
71966;BME280;59836;52.132;5.442;2023-05-02T06:05:35;102468.19;;;9.56;75.99
71966;BME280;59836;52.132;5.442;2023-05-02T06:08:02;102473.59;;;9.56;76.03
71966;BME280;59836;52.132;5.442;2023-05-02T06:10:30;102469.84;;;9.57;75.91
71966;BME280;59836;52.132;5.442;2023-05-02T06:12:56;102474.81;;;9.60;76.02
71966;BME280;59836;52.132;5.442;2023-05-02T06:15:23;102472.25;;;9.65;75.76
71966;BME280;59836;52.132;5.442;2023-05-02T06:17:50;102477.25;;;9.68;75.37
71966;BME280;59836;52.132;5.442;2023-05-02T06:20:17;102480.09;;;9.73;76.06
71966;BME280;59836;52.132;5.442;2023-05-02T06:22:44;102490.94;;;9.73;75.01
71966;BME280;59836;52.132;5.442;2023-05-02T06:25:10;102489.66;;;9.76;74.92
71966;BME280;59836;52.132;5.442;2023-05-02T06:27:37;102494.25;;;9.75;74.06
71966;BME280;59836;52.132;5.442;2023-05-02T06:30:03;102503.00;;;9.78;73.85
71966;BME280;59836;52.132;5.442;2023-05-02T06:32:30;102491.91;;;9.79;74.11
71966;BME280;59836;52.132;5.442;2023-05-02T06:34:59;102503.16;;;9.83;73.68
71966;BME280;59836;52.132;5.442;2023-05-02T06:37:26;102505.41;;;9.86;73.02
71966;BME280;59836;52.132;5.442;2023-05-02T06:39:52;102519.56;;;9.88;72.92
71966;BME280;59836;52.132;5.442;2023-05-02T06:42:19;102522.91;;;9.90;72.29
71966;BME280;59836;52.132;5.442;2023-05-02T06:44:45;102522.66;;;9.92;72.13
71966;BME280;59836;52.132;5.442;2023-05-02T06:47:12;102526.56;;;9.96;72.61
71966;BME280;59836;52.132;5.442;2023-05-02T06:49:38;102534.50;;;9.97;72.17
71966;BME280;59836;52.132;5.442;2023-05-02T06:52:05;102545.78;;;9.94;72.10
71966;BME280;59836;52.132;5.442;2023-05-02T06:54:31;102543.72;;;9.89;72.21
71966;BME280;59836;52.132;5.442;2023-05-02T06:57:16;102545.47;;;9.84;72.09
71966;BME280;59836;52.132;5.442;2023-05-02T06:59:49;102557.34;;;9.83;72.68
71966;BME280;59836;52.132;5.442;2023-05-02T07:02:15;102560.44;;;9.86;72.78
71966;BME280;59836;52.132;5.442;2023-05-02T07:04:41;102566.09;;;9.85;72.70
71966;BME280;59836;52.132;5.442;2023-05-02T07:07:08;102569.63;;;9.85;72.46
71966;BME280;59836;52.132;5.442;2023-05-02T07:09:34;102570.91;;;9.83;72.22
71966;BME280;59836;52.132;5.442;2023-05-02T07:12:01;102570.91;;;9.83;72.80
71966;BME280;59836;52.132;5.442;2023-05-02T07:14:31;102567.16;;;9.84;72.55
71966;BME280;59836;52.132;5.442;2023-05-02T07:16:57;102580.09;;;9.82;72.52
71966;BME280;59836;52.132;5.442;2023-05-02T07:19:24;102576.94;;;9.85;73.62
71966;BME280;59836;52.132;5.442;2023-05-02T07:21:51;102580.47;;;9.85;73.02
71966;BME280;59836;52.132;5.442;2023-05-02T07:24:17;102595.28;;;9.83;73.28
71966;BME280;59836;52.132;5.442;2023-05-02T07:26:43;102598.88;;;9.77;72.17
71966;BME280;59836;52.132;5.442;2023-05-02T07:29:10;102602.25;;;9.72;71.94
71966;BME280;59836;52.132;5.442;2023-05-02T07:31:36;102607.22;;;9.75;72.45
71966;BME280;59836;52.132;5.442;2023-05-02T07:34:03;102602.66;;;9.75;72.45
71966;BME280;59836;52.132;5.442;2023-05-02T07:36:30;102601.97;;;9.80;71.33
71966;BME280;59836;52.132;5.442;2023-05-02T07:38:56;102601.81;;;9.75;71.26
71966;BME280;59836;52.132;5.442;2023-05-02T07:41:22;102608.06;;;9.75;71.31
71966;BME280;59836;52.132;5.442;2023-05-02T07:43:49;102609.28;;;9.80;71.66
71966;BME280;59836;52.132;5.442;2023-05-02T07:46:15;102615.91;;;9.84;71.16
71966;BME280;59836;52.132;5.442;2023-05-02T07:48:42;102614.88;;;9.85;71.42
71966;BME280;59836;52.132;5.442;2023-05-02T07:51:09;102612.16;;;9.85;71.20
71966;BME280;59836;52.132;5.442;2023-05-02T07:53:36;102617.59;;;9.85;70.82
71966;BME280;59836;52.132;5.442;2023-05-02T07:56:03;102621.72;;;9.87;70.50
71966;BME280;59836;52.132;5.442;2023-05-02T07:58:31;102620.47;;;9.90;69.09
71966;BME280;59836;52.132;5.442;2023-05-02T08:00:58;102626.31;;;9.87;69.50
71966;BME280;59836;52.132;5.442;2023-05-02T08:03:24;102626.31;;;9.87;69.97
71966;BME280;59836;52.132;5.442;2023-05-02T08:05:52;102628.16;;;9.93;69.79
71966;BME280;59836;52.132;5.442;2023-05-02T08:08:19;102632.09;;;9.97;69.85
71966;BME280;59836;52.132;5.442;2023-05-02T08:10:45;102628.75;;;9.95;69.17
71966;BME280;59836;52.132;5.442;2023-05-02T08:13:12;102634.19;;;9.95;69.58
71966;BME280;59836;52.132;5.442;2023-05-02T08:15:38;102639.59;;;9.95;68.85
71966;BME280;59836;52.132;5.442;2023-05-02T08:18:04;102642.06;;;9.97;69.13
71966;BME280;59836;52.132;5.442;2023-05-02T08:20:31;102640.41;;;9.96;69.40
71966;BME280;59836;52.132;5.442;2023-05-02T08:22:57;102648.09;;;9.99;69.52
71966;BME280;59836;52.132;5.442;2023-05-02T08:25:25;102654.97;;;10.01;69.38
71966;BME280;59836;52.132;5.442;2023-05-02T08:27:52;102658.94;;;9.99;68.87
71966;BME280;59836;52.132;5.442;2023-05-02T08:30:18;102647.91;;;10.00;68.55
71966;BME280;59836;52.132;5.442;2023-05-02T08:32:45;102650.78;;;10.06;67.55
71966;BME280;59836;52.132;5.442;2023-05-02T08:35:12;102653.63;;;10.11;66.77
71966;BME280;59836;52.132;5.442;2023-05-02T08:37:38;102671.56;;;10.12;66.60
71966;BME280;59836;52.132;5.442;2023-05-02T08:40:10;102667.78;;;10.13;66.17
71966;BME280;59836;52.132;5.442;2023-05-02T08:42:40;102670.06;;;10.16;65.95
71966;BME280;59836;52.132;5.442;2023-05-02T08:45:09;102673.19;;;10.19;66.30
71966;BME280;59836;52.132;5.442;2023-05-02T08:47:39;102671.06;;;10.22;65.64
71966;BME280;59836;52.132;5.442;2023-05-02T08:50:07;102677.91;;;10.24;65.04
71966;BME280;59836;52.132;5.442;2023-05-02T08:52:35;102681.47;;;10.25;63.86
71966;BME280;59836;52.132;5.442;2023-05-02T08:55:03;102680.19;;;10.27;63.93
71966;BME280;59836;52.132;5.442;2023-05-02T08:57:29;102683.50;;;10.29;63.72
71966;BME280;59836;52.132;5.442;2023-05-02T08:59:56;102685.78;;;10.32;64.17
71966;BME280;59836;52.132;5.442;2023-05-02T09:03:10;102684.88;;;10.39;64.42
71966;BME280;59836;52.132;5.442;2023-05-02T09:05:41;102687.97;;;10.49;62.99
71966;BME280;59836;52.132;5.442;2023-05-02T09:08:08;102692.13;;;10.52;62.32
71966;BME280;59836;52.132;5.442;2023-05-02T09:10:34;102688.72;;;10.56;62.08
71966;BME280;59836;52.132;5.442;2023-05-02T09:13:30;102700.34;;;10.63;62.77
71966;BME280;59836;52.132;5.442;2023-05-02T09:15:58;102698.25;;;10.66;61.04
71966;BME280;59836;52.132;5.442;2023-05-02T09:18:29;102695.38;;;10.60;61.38
71966;BME280;59836;52.132;5.442;2023-05-02T09:21:01;102693.72;;;10.59;60.90
71966;BME280;59836;52.132;5.442;2023-05-02T09:23:39;102695.38;;;10.60;60.99
71966;BME280;59836;52.132;5.442;2023-05-02T09:26:26;102705.63;;;10.58;60.46
71966;BME280;59836;52.132;5.442;2023-05-02T09:28:58;102705.78;;;10.63;59.47
71966;BME280;59836;52.132;5.442;2023-05-02T09:31:28;102699.06;;;10.66;58.93
71966;BME280;59836;52.132;5.442;2023-05-02T09:34:15;102709.47;;;10.69;58.85
71966;BME280;59836;52.132;5.442;2023-05-02T09:36:43;102709.84;;;10.73;58.43
71966;BME280;59836;52.132;5.442;2023-05-02T09:39:12;102718.59;;;10.75;58.19
71966;BME280;59836;52.132;5.442;2023-05-02T09:41:40;102714.84;;;10.76;57.38
71966;BME280;59836;52.132;5.442;2023-05-02T09:44:12;102723.94;;;10.82;57.97
71966;BME280;59836;52.132;5.442;2023-05-02T09:46:43;102733.47;;;10.91;57.30
71966;BME280;59836;52.132;5.442;2023-05-02T09:49:10;102734.22;;;10.98;56.15
71966;BME280;59836;52.132;5.442;2023-05-02T09:51:36;102715.91;;;11.12;56.74
71966;BME280;59836;52.132;5.442;2023-05-02T09:54:03;102729.69;;;11.29;56.14
71966;BME280;59836;52.132;5.442;2023-05-02T09:56:30;102726.88;;;11.36;55.61
71966;BME280;59836;52.132;5.442;2023-05-02T09:59:12;102724.91;;;11.43;56.00
71966;BME280;59836;52.132;5.442;2023-05-02T10:01:42;102725.53;;;11.45;55.43
71966;BME280;59836;52.132;5.442;2023-05-02T10:04:11;102714.06;;;11.43;55.08
71966;BME280;59836;52.132;5.442;2023-05-02T10:06:43;102716.16;;;11.41;54.18
71966;BME280;59836;52.132;5.442;2023-05-02T10:09:10;102723.34;;;11.35;54.28
71966;BME280;59836;52.132;5.442;2023-05-02T10:11:43;102717.94;;;11.35;54.24
71966;BME280;59836;52.132;5.442;2023-05-02T10:14:11;102723.25;;;11.42;55.39
71966;BME280;59836;52.132;5.442;2023-05-02T10:16:46;102722.00;;;11.45;55.47
71966;BME280;59836;52.132;5.442;2023-05-02T10:19:23;102733.34;;;11.54;54.06
71966;BME280;59836;52.132;5.442;2023-05-02T10:21:50;102731.38;;;11.61;53.84
71966;BME280;59836;52.132;5.442;2023-05-02T10:24:16;102743.94;;;11.74;54.08
71966;BME280;59836;52.132;5.442;2023-05-02T10:26:43;102737.97;;;11.84;53.28
71966;BME280;59836;52.132;5.442;2023-05-02T10:29:10;102746.81;;;11.79;53.09
71966;BME280;59836;52.132;5.442;2023-05-02T10:31:37;102766.38;;;11.88;53.21
71966;BME280;59836;52.132;5.442;2023-05-02T10:34:05;102751.00;;;11.93;52.32
71966;BME280;59836;52.132;5.442;2023-05-02T10:36:36;102762.25;;;11.97;52.74
71966;BME280;59836;52.132;5.442;2023-05-02T10:39:02;102755.09;;;12.03;51.97
71966;BME280;59836;52.132;5.442;2023-05-02T10:41:30;102751.53;;;12.02;52.79
71966;BME280;59836;52.132;5.442;2023-05-02T10:43:58;102768.25;;;12.18;52.61
71966;BME280;59836;52.132;5.442;2023-05-02T10:46:34;102759.03;;;12.19;51.94
71966;BME280;59836;52.132;5.442;2023-05-02T10:49:09;102758.78;;;12.20;51.95
71966;BME280;59836;52.132;5.442;2023-05-02T10:51:37;102754.75;;;12.23;51.08
71966;BME280;59836;52.132;5.442;2023-05-02T10:59:31;102757.38;;;12.18;51.49
71966;BME280;59836;52.132;5.442;2023-05-02T11:01:59;102759.25;;;12.05;51.16
71966;BME280;59836;52.132;5.442;2023-05-02T11:07:25;102763.63;;;12.06;51.50
71966;BME280;59836;52.132;5.442;2023-05-02T11:09:52;102761.25;;;12.10;51.74
71966;BME280;59836;52.132;5.442;2023-05-02T11:15:59;102767.88;;;12.14;51.66
71966;BME280;59836;52.132;5.442;2023-05-02T11:18:00;102770.84;;;12.13;51.44
71966;BME280;59836;52.132;5.442;2023-05-02T11:20:28;102767.41;;;12.05;51.74
71966;BME280;59836;52.132;5.442;2023-05-02T11:22:57;102768.94;;;12.13;52.78
71966;BME280;59836;52.132;5.442;2023-05-02T11:25:35;102770.28;;;12.22;51.53
71966;BME280;59836;52.132;5.442;2023-05-02T11:28:03;102766.22;;;12.13;50.36
71966;BME280;59836;52.132;5.442;2023-05-02T11:30:40;102772.03;;;12.17;50.98
71966;BME280;59836;52.132;5.442;2023-05-02T11:35:35;102781.97;;;12.23;50.62
71966;BME280;59836;52.132;5.442;2023-05-02T11:38:04;102786.72;;;12.16;51.02
71966;BME280;59836;52.132;5.442;2023-05-02T11:40:31;102779.22;;;12.11;50.81
71966;BME280;59836;52.132;5.442;2023-05-02T11:42:59;102770.72;;;12.07;50.77
71966;BME280;59836;52.132;5.442;2023-05-02T11:45:35;102768.97;;;12.25;52.01
71966;BME280;59836;52.132;5.442;2023-05-02T11:48:05;102778.91;;;12.31;51.17
71966;BME280;59836;52.132;5.442;2023-05-02T11:50:38;102770.41;;;12.39;52.13
71966;BME280;59836;52.132;5.442;2023-05-02T11:53:16;102782.75;;;12.54;52.36
71966;BME280;59836;52.132;5.442;2023-05-02T11:55:48;102778.25;;;12.48;51.55
71966;BME280;59836;52.132;5.442;2023-05-02T11:58:16;102780.00;;;12.42;50.97
71966;BME280;59836;52.132;5.442;2023-05-02T12:00:44;102789.34;;;12.34;51.45
71966;BME280;59836;52.132;5.442;2023-05-02T12:05:49;102794.69;;;12.41;51.19
71966;BME280;59836;52.132;5.442;2023-05-02T12:08:20;102791.25;;;12.46;51.09
71966;BME280;59836;52.132;5.442;2023-05-02T12:10:48;102799.66;;;12.56;51.80
71966;BME280;59836;52.132;5.442;2023-05-02T12:13:16;102802.03;;;12.64;50.43
71966;BME280;59836;52.132;5.442;2023-05-02T12:15:43;102803.69;;;12.65;50.68
71966;BME280;59836;52.132;5.442;2023-05-02T12:18:11;102806.03;;;12.50;49.59
71966;BME280;59836;52.132;5.442;2023-05-02T12:20:38;102812.09;;;12.52;50.98
71966;BME280;59836;52.132;5.442;2023-05-02T12:23:05;102826.28;;;12.54;50.54
71966;BME280;59836;52.132;5.442;2023-05-02T12:25:37;102815.06;;;12.62;50.15
71966;BME280;59836;52.132;5.442;2023-05-02T12:28:04;102828.22;;;12.65;49.60
71966;BME280;59836;52.132;5.442;2023-05-02T12:30:31;102815.53;;;12.47;49.35
71966;BME280;59836;52.132;5.442;2023-05-02T12:32:59;102822.22;;;12.33;49.67
71966;BME280;59836;52.132;5.442;2023-05-02T12:35:28;102823.63;;;12.35;50.43
71966;BME280;59836;52.132;5.442;2023-05-02T12:38:07;102828.28;;;12.47;50.75
71966;BME280;59836;52.132;5.442;2023-05-02T12:40:35;102827.22;;;12.48;49.46
71966;BME280;59836;52.132;5.442;2023-05-02T12:43:03;102827.09;;;12.43;50.14
71966;BME280;59836;52.132;5.442;2023-05-02T12:45:32;102838.03;;;12.54;49.67
71966;BME280;59836;52.132;5.442;2023-05-02T12:48:16;102835.38;;;12.48;49.16
71966;BME280;59836;52.132;5.442;2023-05-02T12:50:42;102834.56;;;12.47;49.35
71966;BME280;59836;52.132;5.442;2023-05-02T12:53:09;102837.97;;;12.43;49.34
71966;BME280;59836;52.132;5.442;2023-05-02T12:55:35;102850.63;;;12.37;48.68
71966;BME280;59836;52.132;5.442;2023-05-02T12:58:05;102850.25;;;12.33;49.52
71966;BME280;59836;52.132;5.442;2023-05-02T13:00:35;102847.44;;;12.40;49.71
71966;BME280;59836;52.132;5.442;2023-05-02T13:03:03;102842.34;;;12.44;49.44
71966;BME280;59836;52.132;5.442;2023-05-02T13:05:29;102849.59;;;12.50;49.50
71966;BME280;59836;52.132;5.442;2023-05-02T13:07:56;102835.97;;;12.50;50.21
71966;BME280;59836;52.132;5.442;2023-05-02T13:10:24;102839.44;;;12.57;49.17
71966;BME280;59836;52.132;5.442;2023-05-02T13:12:53;102835.19;;;12.61;49.48
71966;BME280;59836;52.132;5.442;2023-05-02T13:15:20;102838.38;;;12.58;48.92
71966;BME280;59836;52.132;5.442;2023-05-02T13:17:49;102842.16;;;12.57;49.71
71966;BME280;59836;52.132;5.442;2023-05-02T13:20:16;102842.06;;;12.64;50.05
71966;BME280;59836;52.132;5.442;2023-05-02T13:22:42;102843.72;;;12.77;50.05
71966;BME280;59836;52.132;5.442;2023-05-02T13:25:09;102847.03;;;12.79;49.59
71966;BME280;59836;52.132;5.442;2023-05-02T13:27:35;102849.31;;;12.82;49.25